Marchen Maersk — OUIY2 — position and weather

sailwx.info

Track history (hours):
 
Tides and Currents Weather Stations Pressure Air Temp Water Temp Dewpoint Dewpoint Depression Visibility Wind Speed Wind Dir Waves Ship Positions

Marchen Maersk

Last reported at 2014-Aug-13 21:32 UTC. Time now 2014-Aug-27 21:13 UTC.
Position N 31°13' E 032°21'.
Warning: this ship's position is 13 days out of date.

Length 367 m; draft 12.3 m.

Type: Cargo ship. MMSI: 220594000.

Date/timePositionNaut miles runAvg speedWind from/ knotsBaromVisibWave heightAir tempDewpointWater temp
2014-Aug-13 21:32N 31°13' E 032°21'8 8.6
2014-Aug-13 20:32N 31°21' E 032°23'6 5.8
2014-Aug-13 19:33N 31°26' E 032°19'2 2.2
2014-Aug-13 18:32N 31°26' E 032°17'0 0.0
2014-Aug-13 17:32N 31°25' E 032°17'0 0.2
2014-Aug-13 16:31N 31°25' E 032°16'6 6.5
2014-Aug-13 15:33N 31°31' E 032°13'1817.3
2014-Aug-13 14:32N 31°44' E 031°59'1918.1
2014-Aug-13 13:30N 31°52' E 031°39'1718.1
2014-Aug-13 12:33N 31°59' E 031°20'1817.8
2014-Aug-13 11:34N 32°06' E 031°01'1818.2
2014-Aug-13 10:34N 32°12' E 030°41'1818.1
2014-Aug-13 09:33N 32°18' E 030°20'1817.9
2014-Aug-13 08:33N 32°23' E 029°60'1919.2
2014-Aug-13 07:33N 32°29' E 029°39'5517.2
2014-Aug-13 04:23N 32°46' E 028°37'3917.1
2014-Aug-13 02:04N 32°57' E 027°52'917.1
2014-Aug-13 01:34N 33°00' E 027°42'1717.3
2014-Aug-13 00:33N 33°05' E 027°22'1717.3
2014-Aug-12 23:34N 33°10' E 027°02'1817.9
2014-Aug-12 22:33N 33°16' E 026°42'1918.4
2014-Aug-12 21:33N 33°22' E 026°21'1817.8
2014-Aug-12 20:33N 33°27' E 026°01'3517.7
2014-Aug-12 18:33N 33°38' E 025°20'1817.6
2014-Aug-12 17:33N 33°42' E 024°60'66717.5
2014-Aug-11 03:21N 37°05' E 012°01'1717.4
2014-Aug-11 02:22N 37°12' E 011°41'1417.5
2014-Aug-11 01:34N 37°17' E 011°24'1717.4
2014-Aug-11 00:33N 37°24' E 011°04'1817.9
2014-Aug-10 23:33N 37°28' E 010°42'1817.7
2014-Aug-10 22:33N 37°32' E 010°20'1817.6
2014-Aug-10 21:34N 37°33' E 009°58'2118.1
2014-Aug-10 20:24N 37°28' E 009°32'2419.0
2014-Aug-10 19:08N 37°22' E 009°03'1216.4
2014-Aug-10 18:23N 37°19' E 008°48'4917.4
2014-Aug-10 15:33N 37°16' E 007°47'1817.8
2014-Aug-10 14:33N 37°16' E 007°24'1817.6
2014-Aug-10 13:33N 37°16' E 007°02'3718.2
2014-Aug-10 11:32N 37°15' E 006°16'2017.7
2014-Aug-10 10:22N 37°13' E 005°50'2018.0
2014-Aug-10 09:16N 37°12' E 005°25'3017.7
2014-Aug-10 07:32N 37°10' E 004°47'1817.9
2014-Aug-10 06:33N 37°08' E 004°25'1818.2
2014-Aug-10 05:33N 37°06' E 004°02'1817.6
2014-Aug-10 04:33N 37°05' E 003°40'2019.0
2014-Aug-10 03:31N 37°02' E 003°16'7017.6
2014-Aug-09 23:34N 36°52' E 001°50'1818.1
2014-Aug-09 22:33N 36°49' E 001°27'1818.1
2014-Aug-09 21:33N 36°45' E 001°05'1817.7
2014-Aug-09 20:33N 36°42' E 000°43'1817.8
2014-Aug-09 19:33N 36°40' E 000°22'1818.1
2014-Aug-09 18:34N 36°37' W 000°01'1817.7
2014-Aug-09 17:33N 36°34' W 000°22'1817.6
2014-Aug-09 16:33N 36°33' W 000°44'2118.7
2014-Aug-09 15:25N 36°29' W 001°10'1416.6
2014-Aug-09 14:33N 36°27' W 001°28'1817.6
2014-Aug-09 13:33N 36°24' W 001°50'1817.4
2014-Aug-09 12:32N 36°22' W 002°11'1717.9
2014-Aug-09 11:33N 36°19' W 002°33'13318.3
2014-Aug-09 04:20N 35°60' W 005°15'17617.8
2014-Aug-08 18:26N 36°29' W 008°50'1718.2
2014-Aug-08 17:31N 36°33' W 009°10'  
2014-Aug-06 09:33N 50°14' W 001°30'1918.8
2014-Aug-06 08:33N 50°20' W 001°02'1818.1
2014-Aug-06 07:33N 50°25' W 000°35'3416.7
2014-Aug-06 05:31N 50°35' E 000°16'1515.7
2014-Aug-06 04:33N 50°40' E 000°39'1616.2
2014-Aug-06 03:33N 50°49' E 000°59'1817.2
2014-Aug-06 02:30N 51°01' E 001°21'1718.4
2014-Aug-06 01:33N 51°12' E 001°42'1817.9
2014-Aug-06 00:34N 51°27' E 001°59'1717.1
2014-Aug-05 23:33N 51°39' E 002°17'1716.6
2014-Aug-05 22:33N 51°51' E 002°36'1615.9
2014-Aug-05 21:33N 52°03' E 002°54'1716.4
2014-Aug-05 20:33N 52°04' E 003°21'1616.4
2014-Aug-05 19:33N 52°05' E 003°48'1211.9
2014-Aug-05 18:33N 51°59' E 004°04'2 1.7
2014-Aug-05 17:29N 51°57' E 004°02'0 0.0
2014-Aug-05 16:32N 51°57' E 004°02'0 0.0
2014-Aug-05 15:32N 51°57' E 004°02'0 0.0
2014-Aug-05 14:32N 51°57' E 004°02'0 0.0
2014-Aug-05 13:32N 51°57' E 004°02'0 0.0
2014-Aug-05 12:29N 51°57' E 004°02'0 0.0
2014-Aug-05 11:32N 51°57' E 004°02'0 0.0
2014-Aug-05 10:32N 51°57' E 004°02'0 0.0
2014-Aug-05 09:32N 51°57' E 004°02'0 0.0
2014-Aug-05 08:29N 51°57' E 004°02'0 0.0
2014-Aug-05 07:32N 51°57' E 004°02'0 0.0
2014-Aug-05 06:14N 51°57' E 004°02'0 0.0
2014-Aug-05 05:26N 51°57' E 004°02'0 0.0
2014-Aug-05 04:32N 51°57' E 004°02'0 0.0
2014-Aug-05 03:20N 51°57' E 004°02'0 0.0
2014-Aug-05 02:32N 51°57' E 004°02'0 0.0
2014-Aug-05 01:32N 51°57' E 004°02'0 0.0
2014-Aug-05 00:29N 51°57' E 004°02'0 0.0
2014-Aug-04 23:32N 51°57' E 004°02'0 0.0
2014-Aug-04 22:32N 51°57' E 004°02'0 0.0
2014-Aug-04 21:32N 51°57' E 004°02'0 0.0
2014-Aug-04 20:29N 51°57' E 004°02'0 0.0
2014-Aug-04 19:29N 51°57' E 004°02'0 0.0
2014-Aug-04 18:26N 51°57' E 004°02'0 0.0
2014-Aug-04 17:32N 51°57' E 004°02'0 0.0
2014-Aug-04 16:23N 51°57' E 004°02'0 0.0
2014-Aug-04 15:32N 51°57' E 004°02'0 0.0
2014-Aug-04 14:32N 51°57' E 004°02'0 0.0
2014-Aug-04 13:23N 51°57' E 004°02'0 0.0
2014-Aug-04 12:29N 51°57' E 004°02'0 0.0
2014-Aug-04 11:32N 51°57' E 004°02'0 0.0
2014-Aug-04 10:26N 51°57' E 004°02'0 0.0
2014-Aug-04 09:31N 51°57' E 004°02'2 1.8
2014-Aug-04 08:34N 51°58' E 004°05'7 7.4
2014-Aug-04 07:33N 52°01' E 003°54'6 5.6
2014-Aug-04 06:33N 52°03' E 003°46'1212.2
2014-Aug-04 05:33N 52°15' E 003°47'1913.2
2014-Aug-04 04:05N 52°34' E 003°53'714.0
2014-Aug-04 03:32N 52°41' E 003°55'1614.0
2014-Aug-04 02:24N 52°57' E 004°00'1413.6
2014-Aug-04 01:22N 53°06' E 004°17'1113.4
2014-Aug-04 00:33N 53°15' E 004°28'1413.6
2014-Aug-03 23:32N 53°29' E 004°35'1413.4
2014-Aug-03 22:30N 53°42' E 004°42'  
Track history (hours):
 
Tides and Currents Weather Stations Pressure Air Temp Water Temp Dewpoint Dewpoint Depression Visibility Wind Speed Wind Dir Waves Ship Positions

Marchen Maersk

Last reported at 2014-Aug-13 21:32 UTC. Time now 2014-Aug-27 21:13 UTC.
Position N 31°13' E 032°21'.
Warning: this ship's position is 13 days out of date.

Length 367 m; draft 12.3 m.

Type: Cargo ship. MMSI: 220594000.

Date/timePositionNaut miles runAvg speedWind from/ knotsBaromVisibWave heightAir tempDewpointWater temp
2014-Aug-13 21:32N 31°13' E 032°21'8 8.6
2014-Aug-13 20:32N 31°21' E 032°23'6 5.8
2014-Aug-13 19:33N 31°26' E 032°19'2 2.2
2014-Aug-13 18:32N 31°26' E 032°17'0 0.0
2014-Aug-13 17:32N 31°25' E 032°17'0 0.2
2014-Aug-13 16:31N 31°25' E 032°16'6 6.5
2014-Aug-13 15:33N 31°31' E 032°13'1817.3
2014-Aug-13 14:32N 31°44' E 031°59'1918.1
2014-Aug-13 13:30N 31°52' E 031°39'1718.1
2014-Aug-13 12:33N 31°59' E 031°20'1817.8
2014-Aug-13 11:34N 32°06' E 031°01'1818.2
2014-Aug-13 10:34N 32°12' E 030°41'1818.1
2014-Aug-13 09:33N 32°18' E 030°20'1817.9
2014-Aug-13 08:33N 32°23' E 029°60'1919.2
2014-Aug-13 07:33N 32°29' E 029°39'5517.2
2014-Aug-13 04:23N 32°46' E 028°37'3917.1
2014-Aug-13 02:04N 32°57' E 027°52'917.1
2014-Aug-13 01:34N 33°00' E 027°42'1717.3
2014-Aug-13 00:33N 33°05' E 027°22'1717.3
2014-Aug-12 23:34N 33°10' E 027°02'1817.9
2014-Aug-12 22:33N 33°16' E 026°42'1918.4
2014-Aug-12 21:33N 33°22' E 026°21'1817.8
2014-Aug-12 20:33N 33°27' E 026°01'3517.7
2014-Aug-12 18:33N 33°38' E 025°20'1817.6
2014-Aug-12 17:33N 33°42' E 024°60'66717.5
2014-Aug-11 03:21N 37°05' E 012°01'1717.4
2014-Aug-11 02:22N 37°12' E 011°41'1417.5
2014-Aug-11 01:34N 37°17' E 011°24'1717.4
2014-Aug-11 00:33N 37°24' E 011°04'1817.9
2014-Aug-10 23:33N 37°28' E 010°42'1817.7
2014-Aug-10 22:33N 37°32' E 010°20'1817.6
2014-Aug-10 21:34N 37°33' E 009°58'2118.1
2014-Aug-10 20:24N 37°28' E 009°32'2419.0
2014-Aug-10 19:08N 37°22' E 009°03'1216.4
2014-Aug-10 18:23N 37°19' E 008°48'4917.4
2014-Aug-10 15:33N 37°16' E 007°47'1817.8
2014-Aug-10 14:33N 37°16' E 007°24'1817.6
2014-Aug-10 13:33N 37°16' E 007°02'3718.2
2014-Aug-10 11:32N 37°15' E 006°16'2017.7
2014-Aug-10 10:22N 37°13' E 005°50'2018.0
2014-Aug-10 09:16N 37°12' E 005°25'3017.7
2014-Aug-10 07:32N 37°10' E 004°47'1817.9
2014-Aug-10 06:33N 37°08' E 004°25'1818.2
2014-Aug-10 05:33N 37°06' E 004°02'1817.6
2014-Aug-10 04:33N 37°05' E 003°40'2019.0
2014-Aug-10 03:31N 37°02' E 003°16'7017.6
2014-Aug-09 23:34N 36°52' E 001°50'1818.1
2014-Aug-09 22:33N 36°49' E 001°27'1818.1
2014-Aug-09 21:33N 36°45' E 001°05'1817.7
2014-Aug-09 20:33N 36°42' E 000°43'1817.8
2014-Aug-09 19:33N 36°40' E 000°22'1818.1
2014-Aug-09 18:34N 36°37' W 000°01'1817.7
2014-Aug-09 17:33N 36°34' W 000°22'1817.6
2014-Aug-09 16:33N 36°33' W 000°44'2118.7
2014-Aug-09 15:25N 36°29' W 001°10'1416.6
2014-Aug-09 14:33N 36°27' W 001°28'1817.6
2014-Aug-09 13:33N 36°24' W 001°50'1817.4
2014-Aug-09 12:32N 36°22' W 002°11'1717.9
2014-Aug-09 11:33N 36°19' W 002°33'13318.3
2014-Aug-09 04:20N 35°60' W 005°15'17617.8
2014-Aug-08 18:26N 36°29' W 008°50'1718.2
2014-Aug-08 17:31N 36°33' W 009°10'  
2014-Aug-06 09:33N 50°14' W 001°30'1918.8
2014-Aug-06 08:33N 50°20' W 001°02'1818.1
2014-Aug-06 07:33N 50°25' W 000°35'3416.7
2014-Aug-06 05:31N 50°35' E 000°16'1515.7
2014-Aug-06 04:33N 50°40' E 000°39'1616.2
2014-Aug-06 03:33N 50°49' E 000°59'1817.2
2014-Aug-06 02:30N 51°01' E 001°21'1718.4
2014-Aug-06 01:33N 51°12' E 001°42'1817.9
2014-Aug-06 00:34N 51°27' E 001°59'1717.1
2014-Aug-05 23:33N 51°39' E 002°17'1716.6
2014-Aug-05 22:33N 51°51' E 002°36'1615.9
2014-Aug-05 21:33N 52°03' E 002°54'1716.4
2014-Aug-05 20:33N 52°04' E 003°21'1616.4
2014-Aug-05 19:33N 52°05' E 003°48'1211.9
2014-Aug-05 18:33N 51°59' E 004°04'2 1.7
2014-Aug-05 17:29N 51°57' E 004°02'0 0.0
2014-Aug-05 16:32N 51°57' E 004°02'0 0.0
2014-Aug-05 15:32N 51°57' E 004°02'0 0.0
2014-Aug-05 14:32N 51°57' E 004°02'0 0.0
2014-Aug-05 13:32N 51°57' E 004°02'0 0.0
2014-Aug-05 12:29N 51°57' E 004°02'0 0.0
2014-Aug-05 11:32N 51°57' E 004°02'0 0.0
2014-Aug-05 10:32N 51°57' E 004°02'0 0.0
2014-Aug-05 09:32N 51°57' E 004°02'0 0.0
2014-Aug-05 08:29N 51°57' E 004°02'0 0.0
2014-Aug-05 07:32N 51°57' E 004°02'0 0.0
2014-Aug-05 06:14N 51°57' E 004°02'0 0.0
2014-Aug-05 05:26N 51°57' E 004°02'0 0.0
2014-Aug-05 04:32N 51°57' E 004°02'0 0.0
2014-Aug-05 03:20N 51°57' E 004°02'0 0.0
2014-Aug-05 02:32N 51°57' E 004°02'0 0.0
2014-Aug-05 01:32N 51°57' E 004°02'0 0.0
2014-Aug-05 00:29N 51°57' E 004°02'0 0.0
2014-Aug-04 23:32N 51°57' E 004°02'0 0.0
2014-Aug-04 22:32N 51°57' E 004°02'0 0.0
2014-Aug-04 21:32N 51°57' E 004°02'0 0.0
2014-Aug-04 20:29N 51°57' E 004°02'0 0.0
2014-Aug-04 19:29N 51°57' E 004°02'0 0.0
2014-Aug-04 18:26N 51°57' E 004°02'0 0.0
2014-Aug-04 17:32N 51°57' E 004°02'0 0.0
2014-Aug-04 16:23N 51°57' E 004°02'0 0.0
2014-Aug-04 15:32N 51°57' E 004°02'0 0.0
2014-Aug-04 14:32N 51°57' E 004°02'0 0.0
2014-Aug-04 13:23N 51°57' E 004°02'0 0.0
2014-Aug-04 12:29N 51°57' E 004°02'0 0.0
2014-Aug-04 11:32N 51°57' E 004°02'0 0.0
2014-Aug-04 10:26N 51°57' E 004°02'0 0.0
2014-Aug-04 09:31N 51°57' E 004°02'2 1.8
2014-Aug-04 08:34N 51°58' E 004°05'7 7.4
2014-Aug-04 07:33N 52°01' E 003°54'6 5.6
2014-Aug-04 06:33N 52°03' E 003°46'1212.2
2014-Aug-04 05:33N 52°15' E 003°47'1913.2
2014-Aug-04 04:05N 52°34' E 003°53'714.0
2014-Aug-04 03:32N 52°41' E 003°55'1614.0
2014-Aug-04 02:24N 52°57' E 004°00'1413.6
2014-Aug-04 01:22N 53°06' E 004°17'1113.4
2014-Aug-04 00:33N 53°15' E 004°28'1413.6
2014-Aug-03 23:32N 53°29' E 004°35'1413.4
2014-Aug-03 22:30N 53°42' E 004°42'  

Dump ship's entire track history